sensor_id;sensor_type;location;lat;lon;timestamp;temperature;humidity
5023;DHT22;2530;47.990;7.866;2023-04-01T00:00:06;8.80;99.90
5023;DHT22;2530;47.990;7.866;2023-04-01T00:02:31;8.70;99.90
5023;DHT22;2530;47.990;7.866;2023-04-01T00:04:57;8.50;99.90
5023;DHT22;2530;47.990;7.866;2023-04-01T00:07:23;8.40;99.90
5023;DHT22;2530;47.990;7.866;2023-04-01T00:09:48;8.30;99.90
5023;DHT22;2530;47.990;7.866;2023-04-01T00:12:14;8.20;99.90
5023;DHT22;2530;47.990;7.866;2023-04-01T00:14:39;8.10;99.90
5023;DHT22;2530;47.990;7.866;2023-04-01T00:17:05;8.10;99.90
5023;DHT22;2530;47.990;7.866;2023-04-01T00:19:31;8.10;99.90
5023;DHT22;2530;47.990;7.866;2023-04-01T00:21:58;8.10;99.90
5023;DHT22;2530;47.990;7.866;2023-04-01T00:24:23;8.20;99.90
5023;DHT22;2530;47.990;7.866;2023-04-01T00:26:49;8.30;99.90
5023;DHT22;2530;47.990;7.866;2023-04-01T00:29:14;8.30;99.90
5023;DHT22;2530;47.990;7.866;2023-04-01T00:31:40;8.30;99.90
5023;DHT22;2530;47.990;7.866;2023-04-01T00:34:05;8.40;99.90
5023;DHT22;2530;47.990;7.866;2023-04-01T00:36:31;8.30;99.90
5023;DHT22;2530;47.990;7.866;2023-04-01T00:38:57;8.40;99.90
5023;DHT22;2530;47.990;7.866;2023-04-01T00:41:24;8.50;99.90
5023;DHT22;2530;47.990;7.866;2023-04-01T00:43:51;8.50;99.90
5023;DHT22;2530;47.990;7.866;2023-04-01T00:46:18;8.50;99.90
5023;DHT22;2530;47.990;7.866;2023-04-01T00:49:01;8.60;99.90
5023;DHT22;2530;47.990;7.866;2023-04-01T00:51:29;8.60;99.90
5023;DHT22;2530;47.990;7.866;2023-04-01T00:53:58;8.60;99.90
5023;DHT22;2530;47.990;7.866;2023-04-01T00:56:44;8.60;99.90
5023;DHT22;2530;47.990;7.866;2023-04-01T00:59:16;8.70;99.90
5023;DHT22;2530;47.990;7.866;2023-04-01T01:01:43;8.70;99.90
5023;DHT22;2530;47.990;7.866;2023-04-01T01:04:22;8.70;99.90
5023;DHT22;2530;47.990;7.866;2023-04-01T01:07:21;8.80;99.90
5023;DHT22;2530;47.990;7.866;2023-04-01T01:12:46;8.80;99.90
5023;DHT22;2530;47.990;7.866;2023-04-01T01:15:30;8.80;99.90
5023;DHT22;2530;47.990;7.866;2023-04-01T01:29:13;8.50;99.90
5023;DHT22;2530;47.990;7.866;2023-04-01T01:37:04;8.60;99.90
5023;DHT22;2530;47.990;7.866;2023-04-01T01:39:33;8.70;99.90
5023;DHT22;2530;47.990;7.866;2023-04-01T01:42:03;8.70;99.90
5023;DHT22;2530;47.990;7.866;2023-04-01T01:44:30;8.70;99.90
5023;DHT22;2530;47.990;7.866;2023-04-01T01:46:57;8.80;99.90
5023;DHT22;2530;47.990;7.866;2023-04-01T01:49:24;8.80;99.90
5023;DHT22;2530;47.990;7.866;2023-04-01T01:51:50;8.90;99.90
5023;DHT22;2530;47.990;7.866;2023-04-01T01:54:18;8.90;99.90
5023;DHT22;2530;47.990;7.866;2023-04-01T01:56:47;8.90;99.90
5023;DHT22;2530;47.990;7.866;2023-04-01T01:59:15;9.00;99.90
5023;DHT22;2530;47.990;7.866;2023-04-01T02:01:45;9.10;99.90
5023;DHT22;2530;47.990;7.866;2023-04-01T02:04:13;9.10;99.90
5023;DHT22;2530;47.990;7.866;2023-04-01T02:06:43;9.10;99.90
5023;DHT22;2530;47.990;7.866;2023-04-01T02:09:10;9.10;99.90
5023;DHT22;2530;47.990;7.866;2023-04-01T02:11:46;9.00;99.90
5023;DHT22;2530;47.990;7.866;2023-04-01T02:14:22;9.00;99.90
5023;DHT22;2530;47.990;7.866;2023-04-01T02:17:02;9.00;99.90
5023;DHT22;2530;47.990;7.866;2023-04-01T02:19:36;9.00;99.90
5023;DHT22;2530;47.990;7.866;2023-04-01T02:22:05;9.00;99.90
5023;DHT22;2530;47.990;7.866;2023-04-01T02:24:32;9.00;99.90
5023;DHT22;2530;47.990;7.866;2023-04-01T02:27:00;8.90;99.90
5023;DHT22;2530;47.990;7.866;2023-04-01T02:29:26;8.90;99.90
5023;DHT22;2530;47.990;7.866;2023-04-01T02:31:53;8.80;99.90
5023;DHT22;2530;47.990;7.866;2023-04-01T02:37:24;8.70;99.90
5023;DHT22;2530;47.990;7.866;2023-04-01T02:39:50;8.60;99.90
5023;DHT22;2530;47.990;7.866;2023-04-01T02:42:15;8.60;99.90
5023;DHT22;2530;47.990;7.866;2023-04-01T02:44:41;8.50;99.90
5023;DHT22;2530;47.990;7.866;2023-04-01T02:47:06;8.50;99.90
5023;DHT22;2530;47.990;7.866;2023-04-01T02:49:32;8.40;99.90
5023;DHT22;2530;47.990;7.866;2023-04-01T02:51:57;8.40;99.90
5023;DHT22;2530;47.990;7.866;2023-04-01T02:54:23;8.30;99.90
5023;DHT22;2530;47.990;7.866;2023-04-01T02:56:48;8.30;99.90
5023;DHT22;2530;47.990;7.866;2023-04-01T02:59:14;8.20;99.90
5023;DHT22;2530;47.990;7.866;2023-04-01T03:01:39;8.20;99.90
5023;DHT22;2530;47.990;7.866;2023-04-01T03:04:05;8.20;99.90
5023;DHT22;2530;47.990;7.866;2023-04-01T03:06:31;8.20;99.90
5023;DHT22;2530;47.990;7.866;2023-04-01T03:08:57;8.30;99.90
5023;DHT22;2530;47.990;7.866;2023-04-01T03:11:22;8.30;99.90
5023;DHT22;2530;47.990;7.866;2023-04-01T03:13:48;8.30;99.90
5023;DHT22;2530;47.990;7.866;2023-04-01T03:16:14;8.20;99.90
5023;DHT22;2530;47.990;7.866;2023-04-01T03:18:39;8.20;99.90
5023;DHT22;2530;47.990;7.866;2023-04-01T03:21:20;8.20;99.90
5023;DHT22;2530;47.990;7.866;2023-04-01T03:23:46;8.30;99.90
5023;DHT22;2530;47.990;7.866;2023-04-01T03:26:12;8.30;99.90
5023;DHT22;2530;47.990;7.866;2023-04-01T03:28:37;8.30;99.90
5023;DHT22;2530;47.990;7.866;2023-04-01T03:31:03;8.30;99.90
5023;DHT22;2530;47.990;7.866;2023-04-01T03:33:28;8.20;99.90
5023;DHT22;2530;47.990;7.866;2023-04-01T03:35:54;8.30;99.90
5023;DHT22;2530;47.990;7.866;2023-04-01T03:38:20;8.30;99.90
5023;DHT22;2530;47.990;7.866;2023-04-01T03:40:45;8.20;99.90
5023;DHT22;2530;47.990;7.866;2023-04-01T03:43:11;8.20;99.90
5023;DHT22;2530;47.990;7.866;2023-04-01T03:45:47;8.20;99.90
5023;DHT22;2530;47.990;7.866;2023-04-01T03:48:15;8.20;99.90
5023;DHT22;2530;47.990;7.866;2023-04-01T03:50:41;8.10;99.90
5023;DHT22;2530;47.990;7.866;2023-04-01T03:53:07;8.00;99.90
5023;DHT22;2530;47.990;7.866;2023-04-01T03:55:35;8.00;99.90
5023;DHT22;2530;47.990;7.866;2023-04-01T03:58:00;8.00;99.90
5023;DHT22;2530;47.990;7.866;2023-04-01T04:00:30;8.00;99.90
5023;DHT22;2530;47.990;7.866;2023-04-01T04:02:56;8.00;99.90
5023;DHT22;2530;47.990;7.866;2023-04-01T04:05:23;8.00;99.90
5023;DHT22;2530;47.990;7.866;2023-04-01T04:07:49;8.00;99.90
5023;DHT22;2530;47.990;7.866;2023-04-01T04:10:15;8.00;99.90
5023;DHT22;2530;47.990;7.866;2023-04-01T04:12:40;8.10;99.90
5023;DHT22;2530;47.990;7.866;2023-04-01T04:15:07;8.10;99.90
5023;DHT22;2530;47.990;7.866;2023-04-01T04:17:32;8.10;99.90
5023;DHT22;2530;47.990;7.866;2023-04-01T04:19:58;8.10;99.90
5023;DHT22;2530;47.990;7.866;2023-04-01T04:22:23;8.10;99.90
5023;DHT22;2530;47.990;7.866;2023-04-01T04:24:49;8.10;99.90
5023;DHT22;2530;47.990;7.866;2023-04-01T04:27:15;8.10;99.90
5023;DHT22;2530;47.990;7.866;2023-04-01T04:29:40;8.20;99.90
5023;DHT22;2530;47.990;7.866;2023-04-01T04:32:06;8.10;99.90
5023;DHT22;2530;47.990;7.866;2023-04-01T04:34:32;8.30;99.90
5023;DHT22;2530;47.990;7.866;2023-04-01T04:36:57;8.30;99.90
5023;DHT22;2530;47.990;7.866;2023-04-01T04:39:23;8.30;99.90
5023;DHT22;2530;47.990;7.866;2023-04-01T04:41:48;8.30;99.90
5023;DHT22;2530;47.990;7.866;2023-04-01T04:44:14;8.20;99.90
5023;DHT22;2530;47.990;7.866;2023-04-01T04:46:40;8.30;99.90
5023;DHT22;2530;47.990;7.866;2023-04-01T04:49:06;8.20;99.90
5023;DHT22;2530;47.990;7.866;2023-04-01T04:51:32;8.20;99.90
5023;DHT22;2530;47.990;7.866;2023-04-01T04:54:02;8.20;99.90
5023;DHT22;2530;47.990;7.866;2023-04-01T04:56:27;8.20;99.90
5023;DHT22;2530;47.990;7.866;2023-04-01T04:58:53;8.20;99.90
5023;DHT22;2530;47.990;7.866;2023-04-01T05:01:19;8.20;99.90
5023;DHT22;2530;47.990;7.866;2023-04-01T05:03:45;8.30;99.90
5023;DHT22;2530;47.990;7.866;2023-04-01T05:06:13;8.30;99.90
5023;DHT22;2530;47.990;7.866;2023-04-01T05:08:39;8.40;99.90
5023;DHT22;2530;47.990;7.866;2023-04-01T05:11:07;8.40;99.90
5023;DHT22;2530;47.990;7.866;2023-04-01T05:13:35;8.50;99.90
5023;DHT22;2530;47.990;7.866;2023-04-01T05:16:01;8.50;99.90
5023;DHT22;2530;47.990;7.866;2023-04-01T05:18:27;8.50;99.90
5023;DHT22;2530;47.990;7.866;2023-04-01T05:20:53;8.60;99.90
5023;DHT22;2530;47.990;7.866;2023-04-01T05:23:21;8.60;99.90
5023;DHT22;2530;47.990;7.866;2023-04-01T05:25:48;8.60;99.90
5023;DHT22;2530;47.990;7.866;2023-04-01T05:28:13;8.60;99.90
5023;DHT22;2530;47.990;7.866;2023-04-01T05:30:40;8.60;99.90
5023;DHT22;2530;47.990;7.866;2023-04-01T05:33:07;8.70;99.90
5023;DHT22;2530;47.990;7.866;2023-04-01T05:35:33;8.70;99.90
5023;DHT22;2530;47.990;7.866;2023-04-01T05:37:58;8.70;99.90
5023;DHT22;2530;47.990;7.866;2023-04-01T05:40:24;8.70;99.90
5023;DHT22;2530;47.990;7.866;2023-04-01T05:42:50;8.70;99.90
5023;DHT22;2530;47.990;7.866;2023-04-01T05:45:16;8.80;99.90
5023;DHT22;2530;47.990;7.866;2023-04-01T05:47:41;8.80;99.90
5023;DHT22;2530;47.990;7.866;2023-04-01T05:50:09;8.80;99.90
5023;DHT22;2530;47.990;7.866;2023-04-01T05:52:36;8.80;99.90
5023;DHT22;2530;47.990;7.866;2023-04-01T05:55:02;8.80;99.90
5023;DHT22;2530;47.990;7.866;2023-04-01T05:57:27;8.90;99.90
5023;DHT22;2530;47.990;7.866;2023-04-01T05:59:53;8.80;99.90
5023;DHT22;2530;47.990;7.866;2023-04-01T06:02:18;8.80;99.90
5023;DHT22;2530;47.990;7.866;2023-04-01T06:04:45;8.90;99.90
5023;DHT22;2530;47.990;7.866;2023-04-01T06:07:15;9.00;99.90
5023;DHT22;2530;47.990;7.866;2023-04-01T06:09:41;9.00;99.90
5023;DHT22;2530;47.990;7.866;2023-04-01T06:12:40;9.00;99.90
5023;DHT22;2530;47.990;7.866;2023-04-01T06:15:17;9.10;99.90
5023;DHT22;2530;47.990;7.866;2023-04-01T06:18:28;9.10;99.90
5023;DHT22;2530;47.990;7.866;2023-04-01T06:27:07;9.10;99.90
5023;DHT22;2530;47.990;7.866;2023-04-01T06:29:44;9.20;99.90
5023;DHT22;2530;47.990;7.866;2023-04-01T06:32:21;9.20;99.90
5023;DHT22;2530;47.990;7.866;2023-04-01T06:46:40;9.30;99.90
5023;DHT22;2530;47.990;7.866;2023-04-01T06:54:48;9.30;99.90
5023;DHT22;2530;47.990;7.866;2023-04-01T06:57:23;9.40;99.90
5023;DHT22;2530;47.990;7.866;2023-04-01T06:59:51;9.40;99.90
5023;DHT22;2530;47.990;7.866;2023-04-01T07:02:34;9.40;99.90
5023;DHT22;2530;47.990;7.866;2023-04-01T07:05:04;9.40;99.90
5023;DHT22;2530;47.990;7.866;2023-04-01T07:07:41;9.50;99.90
5023;DHT22;2530;47.990;7.866;2023-04-01T07:10:31;9.50;99.90
5023;DHT22;2530;47.990;7.866;2023-04-01T07:13:04;9.50;99.90
5023;DHT22;2530;47.990;7.866;2023-04-01T07:15:38;9.60;99.90
5023;DHT22;2530;47.990;7.866;2023-04-01T07:18:31;9.60;99.90
5023;DHT22;2530;47.990;7.866;2023-04-01T07:20:57;9.60;99.90
5023;DHT22;2530;47.990;7.866;2023-04-01T07:23:38;9.70;99.90
5023;DHT22;2530;47.990;7.866;2023-04-01T07:26:35;9.70;99.90
5023;DHT22;2530;47.990;7.866;2023-04-01T07:29:01;9.80;99.90
5023;DHT22;2530;47.990;7.866;2023-04-01T07:31:42;9.70;99.90
5023;DHT22;2530;47.990;7.866;2023-04-01T07:34:20;9.70;99.90
5023;DHT22;2530;47.990;7.866;2023-04-01T07:51:03;9.70;99.90
5023;DHT22;2530;47.990;7.866;2023-04-01T07:56:28;9.70;99.90
5023;DHT22;2530;47.990;7.866;2023-04-01T08:01:46;9.70;99.90
5023;DHT22;2530;47.990;7.866;2023-04-01T08:04:33;9.80;99.90
5023;DHT22;2530;47.990;7.866;2023-04-01T08:07:29;9.80;99.90
5023;DHT22;2530;47.990;7.866;2023-04-01T08:13:07;9.90;99.90
5023;DHT22;2530;47.990;7.866;2023-04-01T08:15:56;9.90;99.90
5023;DHT22;2530;47.990;7.866;2023-04-01T08:21:03;9.90;99.90
5023;DHT22;2530;47.990;7.866;2023-04-01T08:23:38;9.90;99.90
5023;DHT22;2530;47.990;7.866;2023-04-01T08:26:41;9.90;99.90
5023;DHT22;2530;47.990;7.866;2023-04-01T08:29:23;9.80;99.90
5023;DHT22;2530;47.990;7.866;2023-04-01T08:32:00;9.90;99.90
5023;DHT22;2530;47.990;7.866;2023-04-01T08:34:37;9.90;99.90
5023;DHT22;2530;47.990;7.866;2023-04-01T08:37:21;9.80;99.90
5023;DHT22;2530;47.990;7.866;2023-04-01T08:43:28;9.90;99.90
5023;DHT22;2530;47.990;7.866;2023-04-01T08:56:40;10.10;99.90
5023;DHT22;2530;47.990;7.866;2023-04-01T09:02:23;10.20;99.90
5023;DHT22;2530;47.990;7.866;2023-04-01T09:05:02;10.20;99.90
5023;DHT22;2530;47.990;7.866;2023-04-01T09:07:45;10.30;99.90
5023;DHT22;2530;47.990;7.866;2023-04-01T09:27:33;10.30;99.90
5023;DHT22;2530;47.990;7.866;2023-04-01T09:30:19;10.30;99.90
5023;DHT22;2530;47.990;7.866;2023-04-01T09:35:50;10.30;99.90
5023;DHT22;2530;47.990;7.866;2023-04-01T09:38:23;10.40;99.90
5023;DHT22;2530;47.990;7.866;2023-04-01T09:46:56;10.40;99.90
5023;DHT22;2530;47.990;7.866;2023-04-01T09:52:47;10.50;99.90
5023;DHT22;2530;47.990;7.866;2023-04-01T10:09:56;10.50;99.90
5023;DHT22;2530;47.990;7.866;2023-04-01T10:12:55;10.50;99.90
5023;DHT22;2530;47.990;7.866;2023-04-01T10:30:05;10.40;99.90
5023;DHT22;2530;47.990;7.866;2023-04-01T10:44:40;10.60;99.90
5023;DHT22;2530;47.990;7.866;2023-04-01T10:50:24;10.50;99.90
5023;DHT22;2530;47.990;7.866;2023-04-01T11:10:02;10.50;99.90
5023;DHT22;2530;47.990;7.866;2023-04-01T11:21:12;10.50;99.90
5023;DHT22;2530;47.990;7.866;2023-04-01T11:26:32;10.40;99.90
5023;DHT22;2530;47.990;7.866;2023-04-01T11:29:03;10.40;99.90
5023;DHT22;2530;47.990;7.866;2023-04-01T11:37:42;10.30;99.90
5023;DHT22;2530;47.990;7.866;2023-04-01T11:49:19;10.30;99.90
5023;DHT22;2530;47.990;7.866;2023-04-01T11:54:28;10.40;99.90
5023;DHT22;2530;47.990;7.866;2023-04-01T12:02:42;10.50;99.90
5023;DHT22;2530;47.990;7.866;2023-04-01T12:07:53;10.50;99.90
5023;DHT22;2530;47.990;7.866;2023-04-01T12:10:46;10.40;99.90
5023;DHT22;2530;47.990;7.866;2023-04-01T12:13:40;10.50;99.90
5023;DHT22;2530;47.990;7.866;2023-04-01T12:19:09;10.70;99.90
5023;DHT22;2530;47.990;7.866;2023-04-01T12:21:52;10.80;99.90
5023;DHT22;2530;47.990;7.866;2023-04-01T12:27:34;10.70;99.90
5023;DHT22;2530;47.990;7.866;2023-04-01T12:36:11;10.80;99.90
5023;DHT22;2530;47.990;7.866;2023-04-01T12:44:03;10.80;99.90
5023;DHT22;2530;47.990;7.866;2023-04-01T12:50:05;10.90;99.90
5023;DHT22;2530;47.990;7.866;2023-04-01T12:53:09;10.90;99.90
5023;DHT22;2530;47.990;7.866;2023-04-01T12:55:38;11.00;99.90
5023;DHT22;2530;47.990;7.866;2023-04-01T12:58:15;10.90;99.90
5023;DHT22;2530;47.990;7.866;2023-04-01T13:07:21;10.90;99.90
5023;DHT22;2530;47.990;7.866;2023-04-01T13:15:51;11.00;99.90
5023;DHT22;2530;47.990;7.866;2023-04-01T13:18:25;11.00;99.90
5023;DHT22;2530;47.990;7.866;2023-04-01T13:21:05;10.90;99.90
5023;DHT22;2530;47.990;7.866;2023-04-01T13:28:39;11.20;99.90
5023;DHT22;2530;47.990;7.866;2023-04-01T13:36:44;11.20;99.90
5023;DHT22;2530;47.990;7.866;2023-04-01T13:42:16;11.40;99.90
5023;DHT22;2530;47.990;7.866;2023-04-01T13:44:52;11.50;99.90
5023;DHT22;2530;47.990;7.866;2023-04-01T14:04:09;12.30;99.90
5023;DHT22;2530;47.990;7.866;2023-04-01T14:09:55;12.10;99.90
5023;DHT22;2530;47.990;7.866;2023-04-01T14:15:28;12.60;97.50
5023;DHT22;2530;47.990;7.866;2023-04-01T14:20:39;12.80;94.60
5023;DHT22;2530;47.990;7.866;2023-04-01T14:32:46;12.30;99.90
5023;DHT22;2530;47.990;7.866;2023-04-01T14:35:33;11.80;99.90
5023;DHT22;2530;47.990;7.866;2023-04-01T14:38:29;11.10;99.90
5023;DHT22;2530;47.990;7.866;2023-04-01T14:41:20;10.50;99.90
5023;DHT22;2530;47.990;7.866;2023-04-01T14:46:30;10.00;99.90
5023;DHT22;2530;47.990;7.866;2023-04-01T14:49:15;10.10;99.90
5023;DHT22;2530;47.990;7.866;2023-04-01T14:51:43;10.50;99.90
5023;DHT22;2530;47.990;7.866;2023-04-01T14:54:21;10.90;99.90
5023;DHT22;2530;47.990;7.866;2023-04-01T14:57:13;11.20;99.90
5023;DHT22;2530;47.990;7.866;2023-04-01T15:00:15;11.90;99.90
5023;DHT22;2530;47.990;7.866;2023-04-01T15:03:08;12.10;99.90
5023;DHT22;2530;47.990;7.866;2023-04-01T15:06:00;11.70;99.90
5023;DHT22;2530;47.990;7.866;2023-04-01T15:20:21;13.90;99.90
5023;DHT22;2530;47.990;7.866;2023-04-01T15:29:06;13.50;99.90
5023;DHT22;2530;47.990;7.866;2023-04-01T15:32:02;13.40;99.90
5023;DHT22;2530;47.990;7.866;2023-04-01T15:34:44;13.10;99.90
5023;DHT22;2530;47.990;7.866;2023-04-01T15:45:31;11.60;99.90
5023;DHT22;2530;47.990;7.866;2023-04-01T15:48:25;11.40;99.90
5023;DHT22;2530;47.990;7.866;2023-04-01T15:51:08;11.30;99.90
5023;DHT22;2530;47.990;7.866;2023-04-01T15:56:44;11.00;99.90
5023;DHT22;2530;47.990;7.866;2023-04-01T15:59:24;10.90;99.90
5023;DHT22;2530;47.990;7.866;2023-04-01T16:02:01;10.90;99.90
5023;DHT22;2530;47.990;7.866;2023-04-01T16:04:54;11.00;99.90
5023;DHT22;2530;47.990;7.866;2023-04-01T16:07:43;11.10;99.90
5023;DHT22;2530;47.990;7.866;2023-04-01T16:13:54;11.20;99.90
5023;DHT22;2530;47.990;7.866;2023-04-01T16:23:55;11.60;99.90
5023;DHT22;2530;47.990;7.866;2023-04-01T16:29:38;11.60;99.90
5023;DHT22;2530;47.990;7.866;2023-04-01T16:46:27;11.50;99.90
5023;DHT22;2530;47.990;7.866;2023-04-01T16:49:17;11.40;99.90
5023;DHT22;2530;47.990;7.866;2023-04-01T16:54:28;11.30;99.90
5023;DHT22;2530;47.990;7.866;2023-04-01T17:02:11;11.30;99.90
5023;DHT22;2530;47.990;7.866;2023-04-01T17:05:01;11.30;99.90
5023;DHT22;2530;47.990;7.866;2023-04-01T17:10:52;11.30;99.90
5023;DHT22;2530;47.990;7.866;2023-04-01T17:13:46;11.30;99.90
5023;DHT22;2530;47.990;7.866;2023-04-01T17:21:57;11.30;99.90
5023;DHT22;2530;47.990;7.866;2023-04-01T17:24:38;11.30;99.90
5023;DHT22;2530;47.990;7.866;2023-04-01T17:30:13;11.30;99.90
5023;DHT22;2530;47.990;7.866;2023-04-01T17:36:04;11.40;99.90
5023;DHT22;2530;47.990;7.866;2023-04-01T17:41:31;11.20;99.90
5023;DHT22;2530;47.990;7.866;2023-04-01T17:47:23;11.10;99.90
5023;DHT22;2530;47.990;7.866;2023-04-01T17:52:45;10.90;99.90
5023;DHT22;2530;47.990;7.866;2023-04-01T17:55:36;10.80;99.90
5023;DHT22;2530;47.990;7.866;2023-04-01T17:58:22;10.80;99.90
5023;DHT22;2530;47.990;7.866;2023-04-01T18:01:03;10.80;99.90
5023;DHT22;2530;47.990;7.866;2023-04-01T18:06:34;10.60;99.90
5023;DHT22;2530;47.990;7.866;2023-04-01T18:12:13;10.50;99.90
5023;DHT22;2530;47.990;7.866;2023-04-01T18:17:56;10.40;99.90
5023;DHT22;2530;47.990;7.866;2023-04-01T18:25:47;10.40;99.90
5023;DHT22;2530;47.990;7.866;2023-04-01T18:31:18;10.40;99.90
5023;DHT22;2530;47.990;7.866;2023-04-01T18:36:39;10.40;99.90
5023;DHT22;2530;47.990;7.866;2023-04-01T18:39:33;10.30;99.90
5023;DHT22;2530;47.990;7.866;2023-04-01T18:44:45;10.30;99.90
5023;DHT22;2530;47.990;7.866;2023-04-01T18:50:19;10.40;99.90
5023;DHT22;2530;47.990;7.866;2023-04-01T18:52:50;10.30;99.90
5023;DHT22;2530;47.990;7.866;2023-04-01T18:55:36;10.20;99.90
5023;DHT22;2530;47.990;7.866;2023-04-01T19:00:48;10.10;99.90
5023;DHT22;2530;47.990;7.866;2023-04-01T19:03:23;10.10;99.90
5023;DHT22;2530;47.990;7.866;2023-04-01T19:05:52;10.10;99.90
5023;DHT22;2530;47.990;7.866;2023-04-01T19:08:40;10.10;99.90
5023;DHT22;2530;47.990;7.866;2023-04-01T19:11:09;10.10;99.90
5023;DHT22;2530;47.990;7.866;2023-04-01T19:13:52;10.20;99.90
5023;DHT22;2530;47.990;7.866;2023-04-01T19:16:28;10.20;99.90
5023;DHT22;2530;47.990;7.866;2023-04-01T19:21:56;10.00;99.90
5023;DHT22;2530;47.990;7.866;2023-04-01T19:33:35;10.00;99.90
5023;DHT22;2530;47.990;7.866;2023-04-01T19:36:11;10.00;99.90
5023;DHT22;2530;47.990;7.866;2023-04-01T19:39:10;10.10;99.90
5023;DHT22;2530;47.990;7.866;2023-04-01T19:47:37;10.00;99.90
5023;DHT22;2530;47.990;7.866;2023-04-01T19:52:49;10.00;99.90
5023;DHT22;2530;47.990;7.866;2023-04-01T19:58:05;10.00;99.90
5023;DHT22;2530;47.990;7.866;2023-04-01T20:00:37;10.00;99.90
5023;DHT22;2530;47.990;7.866;2023-04-01T20:11:55;10.00;99.90
5023;DHT22;2530;47.990;7.866;2023-04-01T20:14:26;10.00;99.90
5023;DHT22;2530;47.990;7.866;2023-04-01T20:17:18;10.00;99.90
5023;DHT22;2530;47.990;7.866;2023-04-01T20:20:13;9.90;99.90
5023;DHT22;2530;47.990;7.866;2023-04-01T20:47:35;10.20;99.90
5023;DHT22;2530;47.990;7.866;2023-04-01T20:52:42;10.10;99.90
5023;DHT22;2530;47.990;7.866;2023-04-01T20:58:13;10.10;99.90
5023;DHT22;2530;47.990;7.866;2023-04-01T21:09:13;10.30;99.90
5023;DHT22;2530;47.990;7.866;2023-04-01T21:11:49;10.30;99.90
5023;DHT22;2530;47.990;7.866;2023-04-01T21:22:49;10.30;99.90
5023;DHT22;2530;47.990;7.866;2023-04-01T21:44:36;10.10;99.90
5023;DHT22;2530;47.990;7.866;2023-04-01T21:50:00;10.00;99.90
5023;DHT22;2530;47.990;7.866;2023-04-01T22:06:21;9.80;99.90
5023;DHT22;2530;47.990;7.866;2023-04-01T22:09:01;9.80;99.90
5023;DHT22;2530;47.990;7.866;2023-04-01T22:24:47;9.80;99.90
5023;DHT22;2530;47.990;7.866;2023-04-01T22:27:34;9.70;99.90
5023;DHT22;2530;47.990;7.866;2023-04-01T22:43:25;9.70;99.90
5023;DHT22;2530;47.990;7.866;2023-04-01T22:51:43;9.60;99.90
5023;DHT22;2530;47.990;7.866;2023-04-01T22:56:48;9.50;99.90
5023;DHT22;2530;47.990;7.866;2023-04-01T22:59:35;9.60;99.90
5023;DHT22;2530;47.990;7.866;2023-04-01T23:02:19;9.60;99.90
5023;DHT22;2530;47.990;7.866;2023-04-01T23:04:52;9.60;99.90
5023;DHT22;2530;47.990;7.866;2023-04-01T23:07:42;9.50;99.90
5023;DHT22;2530;47.990;7.866;2023-04-01T23:10:39;9.50;99.90
5023;DHT22;2530;47.990;7.866;2023-04-01T23:13:11;9.50;99.90
5023;DHT22;2530;47.990;7.866;2023-04-01T23:15:39;9.60;99.90
5023;DHT22;2530;47.990;7.866;2023-04-01T23:21:13;9.50;99.90
5023;DHT22;2530;47.990;7.866;2023-04-01T23:26:21;9.50;99.90
5023;DHT22;2530;47.990;7.866;2023-04-01T23:28:54;9.50;99.90
5023;DHT22;2530;47.990;7.866;2023-04-01T23:31:35;9.50;99.90
5023;DHT22;2530;47.990;7.866;2023-04-01T23:34:17;9.40;99.90
5023;DHT22;2530;47.990;7.866;2023-04-01T23:36:50;9.50;99.90
5023;DHT22;2530;47.990;7.866;2023-04-01T23:42:03;9.40;99.90
5023;DHT22;2530;47.990;7.866;2023-04-01T23:44:31;9.50;99.90
5023;DHT22;2530;47.990;7.866;2023-04-01T23:46:58;9.50;99.90
5023;DHT22;2530;47.990;7.866;2023-04-01T23:49:30;9.60;99.90
5023;DHT22;2530;47.990;7.866;2023-04-01T23:52:03;9.70;99.90
5023;DHT22;2530;47.990;7.866;2023-04-01T23:54:43;9.60;99.90
5023;DHT22;2530;47.990;7.866;2023-04-01T23:57:17;9.50;99.90
5023;DHT22;2530;47.990;7.866;2023-04-01T23:59:43;9.50;99.90
